Time;durP1;ratioP1;P1;durP2;ratioP2;P2;SDS_P1;SDS_P2;PMS_P1;PMS_P2;Temp;Humidity;BMP_temperature;BMP_pressure;BME280_temperature;BME280_humidity;BME280_pressure;Samples;Min_cycle;Max_cycle;Signal;HPM_P1;HPM_P2
2023/03/07 00:02:25;;;;;;;10.17;7.90;;;0.00;99.90;;;;;;5056916;28;20223;-63
2023/03/07 00:04:50;;;;;;;10.57;8.47;;;0.10;99.90;;;;;;5058915;28;20305;-63
2023/03/07 00:07:16;;;;;;;8.53;7.40;;;0.00;99.90;;;;;;5058740;28;20227;-63
2023/03/07 00:09:41;;;;;;;9.90;8.03;;;0.00;99.90;;;;;;5058767;28;20288;-64
2023/03/07 00:12:08;;;;;;;9.60;7.73;;;-0.10;99.90;;;;;;5058518;28;20206;-62
2023/03/07 00:14:34;;;;;;;10.33;7.03;;;-0.10;99.90;;;;;;5056698;28;20201;-62
2023/03/07 00:16:59;;;;;;;11.33;7.90;;;-0.10;99.90;;;;;;5058591;28;20207;-62
2023/03/07 00:19:25;;;;;;;10.80;8.30;;;-0.10;99.90;;;;;;5058870;28;20246;-68
2023/03/07 00:21:50;;;;;;;9.87;7.47;;;-0.10;99.90;;;;;;5058376;28;20211;-76
2023/03/07 00:24:16;;;;;;;13.27;8.50;;;-0.10;99.90;;;;;;5060801;28;20239;-62
2023/03/07 00:26:41;;;;;;;12.50;9.20;;;0.00;99.90;;;;;;5056249;28;20211;-63
2023/03/07 00:29:08;;;;;;;13.20;9.57;;;0.00;99.90;;;;;;5058242;28;20238;-63
2023/03/07 00:31:34;;;;;;;12.63;8.67;;;0.00;99.90;;;;;;5058453;28;20212;-62
2023/03/07 00:34:00;;;;;;;13.07;9.00;;;-0.10;99.90;;;;;;5058647;28;20199;-62
2023/03/07 00:36:26;;;;;;;12.40;9.10;;;0.00;99.90;;;;;;5058474;28;20191;-62
2023/03/07 00:38:52;;;;;;;14.27;9.83;;;0.00;99.90;;;;;;5056165;28;20203;-62
2023/03/07 00:41:20;;;;;;;12.50;10.03;;;0.00;99.90;;;;;;5058288;28;20773;-63
2023/03/07 00:43:47;;;;;;;13.20;8.77;;;0.10;99.90;;;;;;5058351;28;20221;-63
2023/03/07 00:46:13;;;;;;;14.73;10.10;;;0.10;99.90;;;;;;5058060;28;20205;-63
2023/03/07 00:48:39;;;;;;;13.07;9.93;;;0.20;99.90;;;;;;5058061;28;20222;-62
2023/03/07 00:51:07;;;;;;;14.67;10.70;;;0.20;99.90;;;;;;5056220;28;20199;-63
2023/03/07 00:53:34;;;;;;;14.83;10.70;;;0.30;99.90;;;;;;5058459;28;20215;-63
2023/03/07 00:56:00;;;;;;;15.43;11.23;;;0.30;99.90;;;;;;5057911;28;20197;-63
2023/03/07 00:58:27;;;;;;;14.13;10.00;;;0.30;99.90;;;;;;5057861;28;20239;-63
2023/03/07 01:00:53;;;;;;;13.83;10.33;;;0.30;99.90;;;;;;5057614;28;20285;-63
2023/03/07 01:03:20;;;;;;;14.30;10.13;;;0.30;99.90;;;;;;5056059;28;20238;-63
2023/03/07 01:05:46;;;;;;;17.93;12.33;;;0.30;99.90;;;;;;5057854;28;20214;-63
2023/03/07 01:08:11;;;;;;;14.20;11.57;;;0.30;99.90;;;;;;5057449;28;20220;-62
2023/03/07 01:10:37;;;;;;;18.33;11.97;;;0.30;99.90;;;;;;5057836;28;20196;-62
2023/03/07 01:13:03;;;;;;;15.77;11.50;;;0.30;99.90;;;;;;5057672;28;20358;-62
2023/03/07 01:15:29;;;;;;;18.47;12.13;;;0.40;99.90;;;;;;5055621;28;20204;-62
2023/03/07 01:17:54;;;;;;;18.37;11.43;;;0.40;99.90;;;;;;5057354;28;20698;-62
2023/03/07 01:20:20;;;;;;;16.30;11.60;;;0.40;99.90;;;;;;5057309;28;20728;-62
2023/03/07 01:22:46;;;;;;;15.50;11.53;;;0.40;99.90;;;;;;5057094;28;20232;-63
2023/03/07 01:25:12;;;;;;;16.00;11.83;;;0.40;99.90;;;;;;5037561;28;20626;-62
2023/03/07 01:27:37;;;;;;;16.40;12.23;;;0.40;99.90;;;;;;5057515;28;20224;-63
2023/03/07 01:30:04;;;;;;;17.43;13.13;;;0.40;99.90;;;;;;5057288;28;20728;-63
2023/03/07 01:32:30;;;;;;;17.63;11.77;;;0.40;99.90;;;;;;5057312;28;21013;-61
2023/03/07 01:34:55;;;;;;;18.63;12.83;;;0.40;99.90;;;;;;5057475;28;20199;-61
2023/03/07 01:37:21;;;;;;;16.47;12.57;;;0.30;99.90;;;;;;5055926;28;20657;-61
2023/03/07 01:39:50;;;;;;;17.73;13.80;;;0.30;99.90;;;;;;5056990;28;20242;-62
2023/03/07 01:42:16;;;;;;;18.30;12.33;;;0.30;99.90;;;;;;5057019;28;20762;-62
2023/03/07 01:45:27;;;;;;;16.97;12.03;;;0.30;99.90;;;;;;5057106;28;20638;-62
2023/03/07 01:47:52;;;;;;;17.77;12.57;;;0.30;99.90;;;;;;5051851;28;20263;-62
2023/03/07 01:50:18;;;;;;;20.33;14.03;;;0.20;99.90;;;;;;5056911;28;20695;-62
2023/03/07 01:52:53;;;;;;;17.20;13.67;;;0.20;99.90;;;;;;5056991;28;20205;-61
2023/03/07 01:55:22;;;;;;;21.37;14.60;;;0.30;99.90;;;;;;5056676;28;20309;-63
2023/03/07 01:57:50;;;;;;;19.23;13.23;;;0.30;99.90;;;;;;5052284;28;20208;-61
2023/03/07 02:00:24;;;;;;;23.27;16.67;;;0.30;99.90;;;;;;5056897;28;20238;-62
2023/03/07 02:03:00;;;;;;;17.77;12.73;;;0.30;99.90;;;;;;5056681;28;20212;-63
2023/03/07 02:05:31;;;;;;;19.63;13.97;;;0.30;99.90;;;;;;5056091;28;20711;-62
2023/03/07 02:08:01;;;;;;;20.97;14.43;;;0.30;99.90;;;;;;5056767;28;20224;-64
2023/03/07 02:10:27;;;;;;;20.03;14.53;;;0.40;99.90;;;;;;5056561;28;20204;-62
2023/03/07 02:12:53;;;;;;;18.63;15.43;;;0.40;99.90;;;;;;5054561;28;20200;-62
2023/03/07 02:15:19;;;;;;;21.23;14.60;;;0.40;99.90;;;;;;5056664;28;20203;-61
2023/03/07 02:17:45;;;;;;;22.93;15.33;;;0.40;99.90;;;;;;5056511;28;20228;-61
2023/03/07 02:20:37;;;;;;;23.07;15.60;;;0.40;99.90;;;;;;5056258;28;20599;-64
2023/03/07 02:23:06;;;;;;;22.13;15.27;;;0.40;99.90;;;;;;5056224;28;20318;-61
2023/03/07 02:25:51;;;;;;;23.23;16.13;;;0.50;99.90;;;;;;5056008;28;20232;-61
2023/03/07 02:28:18;;;;;;;25.00;16.70;;;0.50;99.90;;;;;;5053559;28;20295;-61
2023/03/07 02:31:06;;;;;;;23.13;16.67;;;0.60;99.90;;;;;;5054176;28;20209;-63
2023/03/07 02:33:32;;;;;;;25.27;17.93;;;0.60;99.90;;;;;;5055918;28;20209;-62
2023/03/07 02:36:03;;;;;;;28.03;18.97;;;0.60;99.90;;;;;;5054330;28;20494;-63
2023/03/07 02:38:32;;;;;;;31.90;18.10;;;0.70;99.90;;;;;;5056656;28;20562;-62
2023/03/07 02:40:57;;;;;;;30.07;19.03;;;0.80;99.90;;;;;;5056075;28;20771;-62
2023/03/07 02:43:23;;;;;;;28.90;18.57;;;0.80;99.90;;;;;;5056155;28;20216;-61
2023/03/07 02:45:49;;;;;;;28.13;18.90;;;0.80;99.90;;;;;;5054071;28;20205;-62
2023/03/07 02:48:14;;;;;;;29.00;19.63;;;0.90;99.90;;;;;;5056003;28;20218;-63
2023/03/07 02:50:40;;;;;;;26.77;18.43;;;0.80;99.90;;;;;;5055815;28;20646;-62
2023/03/07 02:53:05;;;;;;;29.37;19.90;;;0.80;99.90;;;;;;5055598;28;20206;-62
2023/03/07 02:55:32;;;;;;;28.97;19.07;;;0.90;99.90;;;;;;5054392;28;20206;-62
2023/03/07 02:57:58;;;;;;;29.27;20.23;;;0.90;99.90;;;;;;5055761;28;20293;-62
2023/03/07 03:00:23;;;;;;;29.13;19.83;;;0.90;99.90;;;;;;5055742;28;20198;-62
2023/03/07 03:02:49;;;;;;;33.60;21.40;;;0.90;99.90;;;;;;5055287;28;20223;-62
2023/03/07 03:05:14;;;;;;;31.67;21.63;;;0.90;99.90;;;;;;5055589;28;20204;-62
2023/03/07 03:07:40;;;;;;;32.60;20.83;;;0.90;99.90;;;;;;5055481;28;20227;-62
2023/03/07 03:10:06;;;;;;;29.53;20.27;;;0.90;99.90;;;;;;5053387;28;20411;-62
2023/03/07 03:12:31;;;;;;;32.03;20.10;;;1.00;99.90;;;;;;5055110;28;20210;-62
2023/03/07 03:14:57;;;;;;;32.07;20.07;;;1.00;99.90;;;;;;5055560;28;20196;-62
2023/03/07 03:17:23;;;;;;;29.60;21.03;;;1.00;99.90;;;;;;5054436;28;20649;-63
2023/03/07 03:19:48;;;;;;;31.10;20.67;;;1.00;99.90;;;;;;5055572;28;20202;-64
2023/03/07 03:22:14;;;;;;;32.30;20.13;;;1.00;99.90;;;;;;5020365;28;20257;-63
2023/03/07 03:24:41;;;;;;;32.70;23.10;;;1.00;99.90;;;;;;5053681;28;20241;-62
2023/03/07 03:27:07;;;;;;;34.67;22.77;;;1.10;99.90;;;;;;5055413;28;20220;-63
2023/03/07 03:29:33;;;;;;;33.43;21.83;;;1.10;99.90;;;;;;5055415;28;20536;-63
2023/03/07 03:31:59;;;;;;;31.60;20.27;;;1.10;99.90;;;;;;5056610;28;20208;-63
2023/03/07 03:34:24;;;;;;;30.43;20.87;;;1.10;99.90;;;;;;5055884;28;20203;-63
2023/03/07 03:36:50;;;;;;;33.90;21.20;;;1.10;99.90;;;;;;5056200;28;20195;-62
2023/03/07 03:39:15;;;;;;;37.07;22.60;;;1.10;99.90;;;;;;5048386;28;20258;-62
2023/03/07 03:41:41;;;;;;;31.70;20.53;;;1.20;99.90;;;;;;5055594;28;20208;-62
2023/03/07 03:44:07;;;;;;;29.77;19.93;;;1.20;99.90;;;;;;5055377;28;20282;-62
2023/03/07 03:46:33;;;;;;;31.77;20.83;;;1.20;99.90;;;;;;5054984;28;20342;-62
2023/03/07 03:48:58;;;;;;;34.83;20.43;;;1.20;99.90;;;;;;5054942;28;20924;-62
2023/03/07 03:51:24;;;;;;;31.83;21.07;;;1.30;99.90;;;;;;5053406;28;20545;-62
2023/03/07 03:53:50;;;;;;;28.43;19.60;;;1.30;99.90;;;;;;5055053;28;20300;-61
2023/03/07 03:56:21;;;;;;;32.23;19.87;;;1.30;99.90;;;;;;5054810;28;20221;-61
2023/03/07 03:58:52;;;;;;;28.47;18.27;;;1.40;99.90;;;;;;5054813;28;20195;-63
2023/03/07 04:01:19;;;;;;;30.57;19.13;;;1.40;99.90;;;;;;5054995;28;20203;-68
2023/03/07 04:03:48;;;;;;;27.93;20.67;;;1.40;99.90;;;;;;5055186;28;20344;-61
2023/03/07 04:06:17;;;;;;;34.13;20.27;;;1.40;99.90;;;;;;5055159;28;20532;-61
2023/03/07 04:08:45;;;;;;;28.50;18.60;;;1.40;99.90;;;;;;5054926;28;21009;-62
2023/03/07 04:11:11;;;;;;;31.87;19.83;;;1.50;99.90;;;;;;5054073;28;20199;-62
2023/03/07 04:13:37;;;;;;;27.63;18.20;;;1.50;99.90;;;;;;5054514;28;20212;-61
2023/03/07 04:16:03;;;;;;;29.20;18.97;;;1.50;99.90;;;;;;5054627;28;20315;-62
2023/03/07 04:18:28;;;;;;;31.17;20.50;;;1.50;99.90;;;;;;5036591;28;20226;-64
2023/03/07 04:20:54;;;;;;;26.17;19.23;;;1.60;99.90;;;;;;5054629;28;20839;-62
2023/03/07 04:23:22;;;;;;;29.60;17.97;;;1.60;99.90;;;;;;5054397;28;20237;-62
2023/03/07 04:25:56;;;;;;;27.30;19.40;;;1.60;99.90;;;;;;5054069;28;20734;-63
2023/03/07 04:28:23;;;;;;;31.00;20.23;;;1.70;99.90;;;;;;5054967;28;20209;-63
2023/03/07 04:30:49;;;;;;;29.83;19.33;;;1.70;99.90;;;;;;5058269;28;20189;-63
2023/03/07 04:33:15;;;;;;;27.53;18.33;;;1.70;99.90;;;;;;5056360;28;20244;-63
2023/03/07 04:35:41;;;;;;;26.47;16.87;;;1.60;99.90;;;;;;5058272;28;20740;-62
2023/03/07 04:38:07;;;;;;;35.40;19.83;;;1.60;99.90;;;;;;5058051;28;20215;-63
2023/03/07 04:40:33;;;;;;;29.57;18.90;;;1.60;99.90;;;;;;5057859;28;20217;-63
2023/03/07 04:42:58;;;;;;;30.13;20.50;;;1.60;99.90;;;;;;5057828;28;20254;-62
2023/03/07 04:45:24;;;;;;;31.67;20.90;;;1.60;99.90;;;;;;5055933;28;20209;-62
2023/03/07 04:47:49;;;;;;;31.30;20.90;;;1.60;99.90;;;;;;5057691;28;20343;-62
2023/03/07 04:50:19;;;;;;;30.27;19.50;;;1.50;99.90;;;;;;5057694;28;20188;-62
2023/03/07 04:52:44;;;;;;;31.40;19.50;;;1.50;99.90;;;;;;5057863;28;20232;-63
2023/03/07 04:55:10;;;;;;;32.63;19.93;;;1.50;99.90;;;;;;5057539;28;20748;-63
2023/03/07 04:57:36;;;;;;;30.93;20.37;;;1.40;99.90;;;;;;5056459;28;20216;-62
2023/03/07 05:00:08;;;;;;;30.03;19.40;;;1.30;99.90;;;;;;5052548;28;20231;-63
2023/03/07 05:02:34;;;;;;;34.23;20.13;;;1.30;99.90;;;;;;5057429;28;20205;-62
2023/03/07 05:04:59;;;;;;;33.50;20.93;;;1.30;99.90;;;;;;5057180;28;20211;-62
2023/03/07 05:07:25;;;;;;;33.07;20.27;;;1.20;99.90;;;;;;5057200;28;20551;-62
2023/03/07 05:09:51;;;;;;;35.87;22.37;;;1.20;99.90;;;;;;5055494;28;20193;-63
2023/03/07 05:12:16;;;;;;;33.57;21.37;;;1.20;99.90;;;;;;5057199;28;20203;-62
2023/03/07 05:14:42;;;;;;;32.27;19.30;;;1.20;99.90;;;;;;5057608;28;20205;-61
2023/03/07 05:17:08;;;;;;;27.90;17.93;;;1.20;99.90;;;;;;5057286;28;20200;-62
2023/03/07 05:19:33;;;;;;;31.50;19.80;;;1.10;99.90;;;;;;5057020;28;20500;-62
2023/03/07 05:21:59;;;;;;;30.53;19.43;;;1.10;99.90;;;;;;5056852;28;20756;-62
2023/03/07 05:24:25;;;;;;;32.30;20.23;;;1.10;99.90;;;;;;5054912;28;20586;-62
2023/03/07 05:26:50;;;;;;;33.93;20.43;;;1.10;99.90;;;;;;5056854;28;20724;-62
2023/03/07 05:29:15;;;;;;;33.63;18.10;;;1.10;99.90;;;;;;5057282;28;20290;-64
2023/03/07 05:31:41;;;;;;;35.60;21.37;;;1.10;99.90;;;;;;5057130;28;20690;-64
2023/03/07 05:34:09;;;;;;;33.47;22.10;;;1.20;99.90;;;;;;5056799;28;20199;-64
2023/03/07 05:36:35;;;;;;;32.43;21.53;;;1.20;99.90;;;;;;5054415;28;20431;-64
2023/03/07 05:39:01;;;;;;;29.57;19.17;;;1.10;99.90;;;;;;5056867;28;20218;-65
2023/03/07 05:41:26;;;;;;;33.57;21.00;;;1.20;99.90;;;;;;5056119;28;20583;-62
2023/03/07 05:43:53;;;;;;;36.10;21.73;;;1.20;99.90;;;;;;5056548;28;20860;-63
2023/03/07 05:46:19;;;;;;;33.60;21.73;;;1.20;99.90;;;;;;5056595;28;20209;-62
2023/03/07 05:48:45;;;;;;;32.03;19.47;;;1.20;99.90;;;;;;5054953;28;20219;-62
2023/03/07 05:51:10;;;;;;;33.50;21.83;;;1.20;99.90;;;;;;5056343;28;20210;-63
2023/03/07 05:53:36;;;;;;;30.53;20.77;;;1.10;99.90;;;;;;5056756;28;20218;-63
2023/03/07 05:56:01;;;;;;;33.20;19.67;;;1.20;99.90;;;;;;5056624;28;20268;-63
2023/03/07 05:58:27;;;;;;;30.13;20.63;;;1.20;99.90;;;;;;5054434;28;20212;-65
2023/03/07 06:00:52;;;;;;;34.17;20.67;;;1.20;99.90;;;;;;5056431;28;20207;-64
2023/03/07 06:03:17;;;;;;;34.77;22.17;;;1.20;99.90;;;;;;5056266;28;20246;-63
2023/03/07 06:05:43;;;;;;;35.30;22.17;;;1.20;99.90;;;;;;5056387;28;20287;-62
2023/03/07 06:08:08;;;;;;;31.63;21.30;;;1.20;99.90;;;;;;5056309;28;21017;-62
2023/03/07 06:10:35;;;;;;;30.80;21.10;;;1.30;99.90;;;;;;5056358;28;20206;-62
2023/03/07 06:13:01;;;;;;;35.63;21.87;;;1.30;99.90;;;;;;5054363;28;20201;-64
2023/03/07 06:15:27;;;;;;;31.43;20.00;;;1.30;99.90;;;;;;5059595;28;20713;-62
2023/03/07 06:17:52;;;;;;;32.03;19.07;;;1.30;99.90;;;;;;5063722;28;20360;-64
2023/03/07 06:20:19;;;;;;;32.33;20.07;;;1.40;99.90;;;;;;5063055;28;20258;-62
2023/03/07 06:22:46;;;;;;;32.63;21.80;;;1.40;99.90;;;;;;5057911;28;20894;-72
2023/03/07 06:25:13;;;;;;;30.07;21.37;;;1.40;99.90;;;;;;5051481;28;20746;-71
2023/03/07 06:27:39;;;;;;;31.17;20.03;;;1.50;99.90;;;;;;5056384;28;20729;-71
2023/03/07 06:30:06;;;;;;;28.00;19.30;;;1.50;99.90;;;;;;5056085;28;20561;-67
2023/03/07 06:32:32;;;;;;;32.33;21.07;;;1.50;99.90;;;;;;5059401;28;20203;-61
2023/03/07 06:34:57;;;;;;;27.83;18.97;;;1.60;99.90;;;;;;5055659;28;20228;-62
2023/03/07 06:37:23;;;;;;;30.93;19.33;;;1.60;99.90;;;;;;5059109;28;20620;-63
2023/03/07 06:39:49;;;;;;;31.30;19.50;;;1.60;99.90;;;;;;5055684;28;20986;-62
2023/03/07 06:42:14;;;;;;;30.70;19.73;;;1.60;99.90;;;;;;5055611;28;20207;-62
2023/03/07 06:44:40;;;;;;;31.47;19.63;;;1.60;99.90;;;;;;5056022;28;20580;-63
2023/03/07 06:47:06;;;;;;;30.13;19.10;;;1.70;99.90;;;;;;5055632;28;20243;-62
2023/03/07 06:49:31;;;;;;;29.67;19.83;;;1.70;99.90;;;;;;5053490;28;20305;-65
2023/03/07 06:51:57;;;;;;;30.80;19.17;;;1.80;99.90;;;;;;5055313;28;20204;-60
2023/03/07 06:54:22;;;;;;;30.77;18.50;;;1.80;99.90;;;;;;5055612;28;20199;-63
2023/03/07 06:56:48;;;;;;;29.20;18.73;;;1.80;99.90;;;;;;5055637;28;20255;-61
2023/03/07 06:59:13;;;;;;;29.13;17.67;;;1.90;99.90;;;;;;5055548;28;20245;-61
2023/03/07 07:01:39;;;;;;;26.40;18.43;;;1.90;99.90;;;;;;5055408;28;20198;-62
2023/03/07 07:04:04;;;;;;;26.07;17.17;;;2.00;99.90;;;;;;5055380;28;20253;-61
2023/03/07 07:06:30;;;;;;;27.50;17.97;;;2.00;99.90;;;;;;5053590;28;20210;-64
2023/03/07 07:08:57;;;;;;;25.93;17.57;;;2.10;99.90;;;;;;5055304;28;20471;-63
2023/03/07 07:11:24;;;;;;;24.30;17.20;;;2.10;99.90;;;;;;5055555;28;20205;-62
2023/03/07 07:13:49;;;;;;;26.83;16.77;;;2.10;99.90;;;;;;5055943;28;20855;-62
2023/03/07 07:16:15;;;;;;;23.37;16.50;;;2.10;99.90;;;;;;5053449;28;20286;-61
2023/03/07 07:18:41;;;;;;;26.23;14.80;;;2.10;99.90;;;;;;5055433;28;20236;-63
2023/03/07 07:21:06;;;;;;;25.77;16.77;;;2.20;99.90;;;;;;5054778;28;20628;-63
2023/03/07 07:23:32;;;;;;;24.83;16.27;;;2.20;99.90;;;;;;5049228;28;20960;-63
2023/03/07 07:25:57;;;;;;;21.97;15.43;;;2.30;99.90;;;;;;5054903;28;20667;-64
2023/03/07 07:28:23;;;;;;;25.57;15.77;;;2.30;99.90;;;;;;5053599;28;20215;-60
2023/03/07 07:30:48;;;;;;;24.13;14.83;;;2.40;99.90;;;;;;5054941;28;20201;-62
2023/03/07 07:33:14;;;;;;;22.00;15.53;;;2.50;99.90;;;;;;5054752;28;20202;-62
2023/03/07 07:35:42;;;;;;;23.33;13.73;;;2.60;99.90;;;;;;5054918;28;20614;-62
2023/03/07 07:38:08;;;;;;;23.83;15.87;;;2.70;99.90;;;;;;5055089;28;20213;-61
2023/03/07 07:40:33;;;;;;;22.97;15.60;;;2.70;99.90;;;;;;5054778;28;20213;-63
2023/03/07 07:42:59;;;;;;;19.17;13.33;;;2.70;99.90;;;;;;5052940;28;20227;-61
2023/03/07 07:45:24;;;;;;;20.93;13.60;;;2.70;99.90;;;;;;5054911;28;21209;-62
2023/03/07 07:47:50;;;;;;;21.50;14.10;;;2.70;99.90;;;;;;5054894;28;20535;-61
2023/03/07 07:50:17;;;;;;;26.87;14.83;;;2.80;99.90;;;;;;5054625;28;20629;-62
2023/03/07 07:52:43;;;;;;;21.20;14.03;;;2.80;99.90;;;;;;5055797;28;20209;-61
2023/03/07 07:55:09;;;;;;;20.50;13.27;;;2.80;99.90;;;;;;5052877;28;20201;-64
2023/03/07 07:57:35;;;;;;;17.97;13.20;;;2.80;99.90;;;;;;5054603;28;20625;-63
2023/03/07 08:00:03;;;;;;;18.13;12.70;;;2.80;99.90;;;;;;5056921;28;20233;-71
2023/03/07 08:02:29;;;;;;;20.37;12.70;;;2.90;99.90;;;;;;5053994;28;20260;-70
2023/03/07 08:04:54;;;;;;;19.23;12.50;;;3.00;99.90;;;;;;5057622;28;20708;-71
2023/03/07 08:07:20;;;;;;;17.30;13.10;;;3.00;99.90;;;;;;5056327;28;20259;-71
2023/03/07 08:09:46;;;;;;;16.83;12.83;;;3.00;99.90;;;;;;5058653;28;20714;-71
2023/03/07 08:12:11;;;;;;;17.70;13.33;;;3.00;99.90;;;;;;5039412;28;20581;-71
2023/03/07 08:14:38;;;;;;;17.27;12.47;;;3.00;99.90;;;;;;5059232;28;20202;-71
2023/03/07 08:17:03;;;;;;;18.33;13.20;;;3.10;99.90;;;;;;5058662;28;20212;-71
2023/03/07 08:19:29;;;;;;;18.17;13.27;;;3.10;99.90;;;;;;5056980;28;20597;-71
2023/03/07 08:21:54;;;;;;;17.93;12.57;;;3.10;99.90;;;;;;5057898;28;20680;-71
2023/03/07 08:24:20;;;;;;;18.17;13.63;;;3.10;99.90;;;;;;5058163;28;20209;-73
2023/03/07 08:26:45;;;;;;;15.67;11.23;;;2.90;99.90;;;;;;5057694;28;20198;-70
2023/03/07 08:29:11;;;;;;;17.13;11.33;;;2.80;99.90;;;;;;5058189;28;20220;-71
2023/03/07 08:31:37;;;;;;;18.83;13.30;;;2.80;99.90;;;;;;5056562;28;20204;-75
2023/03/07 08:34:03;;;;;;;19.50;12.67;;;2.90;99.90;;;;;;5058411;28;20193;-80
2023/03/07 08:36:29;;;;;;;19.93;13.30;;;3.10;99.90;;;;;;5059339;28;20209;-68
2023/03/07 08:38:54;;;;;;;21.00;14.27;;;3.20;99.90;;;;;;5054690;28;20317;-76
2023/03/07 08:41:21;;;;;;;16.27;12.20;;;3.60;99.90;;;;;;5057751;28;20213;-72
2023/03/07 08:43:47;;;;;;;14.83;11.10;;;3.70;99.90;;;;;;5065785;28;20204;-76
2023/03/07 08:46:13;;;;;;;22.00;14.03;;;3.70;99.90;;;;;;5067381;28;20367;-74
2023/03/07 08:48:42;;;;;;;19.50;12.80;;;3.80;99.90;;;;;;5062163;28;20676;-75
2023/03/07 08:51:11;;;;;;;15.87;11.67;;;3.90;99.90;;;;;;5066215;28;20244;-75
2023/03/07 08:53:37;;;;;;;16.80;12.10;;;4.00;99.90;;;;;;5063073;28;20220;-76
2023/03/07 08:56:07;;;;;;;16.97;12.97;;;4.00;99.90;;;;;;5065735;28;20694;-74
2023/03/07 08:58:33;;;;;;;14.23;10.97;;;4.10;99.90;;;;;;5067025;28;20259;-74
2023/03/07 09:00:58;;;;;;;15.17;10.37;;;4.10;99.90;;;;;;5061536;28;20206;-74
2023/03/07 09:03:24;;;;;;;14.33;10.87;;;4.00;99.90;;;;;;5052009;28;20615;-74
2023/03/07 09:05:49;;;;;;;13.23;10.50;;;4.00;99.90;;;;;;5053625;28;20198;-75
2023/03/07 09:08:15;;;;;;;17.37;12.00;;;4.30;99.90;;;;;;5054847;28;20584;-75
2023/03/07 09:10:40;;;;;;;14.37;11.27;;;4.30;99.90;;;;;;5057384;28;20726;-75
2023/03/07 09:13:06;;;;;;;17.73;11.57;;;4.40;99.90;;;;;;5057532;28;20221;-73
2023/03/07 09:15:31;;;;;;;12.80;9.93;;;4.40;99.90;;;;;;5034398;28;20289;-72
2023/03/07 09:17:57;;;;;;;13.73;9.63;;;4.30;99.90;;;;;;5056747;28;20211;-74
2023/03/07 09:20:23;;;;;;;13.63;9.90;;;4.40;99.90;;;;;;5057395;28;20202;-74
2023/03/07 09:22:50;;;;;;;13.60;10.57;;;4.50;99.90;;;;;;5057253;28;20238;-74
2023/03/07 09:25:17;;;;;;;11.43;9.40;;;4.50;99.90;;;;;;5057539;28;20206;-75
2023/03/07 09:27:44;;;;;;;15.37;10.37;;;4.50;99.90;;;;;;5055805;28;20214;-74
2023/03/07 09:30:10;;;;;;;13.07;9.50;;;4.50;99.90;;;;;;5051553;28;20201;-74
2023/03/07 09:32:36;;;;;;;13.30;9.63;;;4.40;99.90;;;;;;5057880;28;20204;-77
2023/03/07 09:35:02;;;;;;;12.20;8.37;;;4.50;99.90;;;;;;5057590;28;20198;-77
2023/03/07 09:37:28;;;;;;;12.50;9.73;;;4.50;99.90;;;;;;5057665;28;20233;-76
2023/03/07 09:39:53;;;;;;;13.23;9.60;;;4.60;99.90;;;;;;5057104;28;21005;-79
2023/03/07 09:42:51;;;;;;;39.43;24.73;;;4.60;99.90;;;;;;5055170;28;20295;-76
2023/03/07 09:45:23;;;;;;;19.30;13.70;;;4.60;99.90;;;;;;5047983;28;20213;-78
2023/03/07 09:48:01;;;;;;;10.70;8.73;;;4.80;99.90;;;;;;5055892;28;20256;-74
2023/03/07 09:50:50;;;;;;;26.40;15.73;;;4.90;99.90;;;;;;5050773;28;20585;-75
2023/03/07 09:53:40;;;;;;;38.27;23.27;;;5.00;99.90;;;;;;5053415;28;20201;-77
2023/03/07 09:56:13;;;;;;;11.57;8.67;;;5.00;99.90;;;;;;5054470;28;20673;-74
2023/03/07 09:58:43;;;;;;;22.93;14.57;;;5.20;99.90;;;;;;5055281;28;20206;-77
2023/03/07 10:01:12;;;;;;;17.97;11.97;;;5.30;99.90;;;;;;5052867;28;20202;-73
2023/03/07 10:04:01;;;;;;;11.13;7.57;;;5.30;99.90;;;;;;5054700;28;20201;-73
2023/03/07 10:06:40;;;;;;;9.97;7.63;;;5.30;99.90;;;;;;5062961;28;20238;-72
2023/03/07 10:09:12;;;;;;;18.97;12.03;;;5.60;99.90;;;;;;5058824;28;20224;-72
2023/03/07 10:11:56;;;;;;;12.77;8.13;;;5.70;99.90;;;;;;5062658;28;20204;-74
2023/03/07 10:14:30;;;;;;;9.03;7.07;;;5.80;99.90;;;;;;5054950;28;20190;-74
2023/03/07 10:17:30;;;;;;;22.07;13.77;;;5.50;99.90;;;;;;5060894;28;20201;-73
2023/03/07 10:20:30;;;;;;;13.00;8.73;;;5.60;99.90;;;;;;5053528;28;20320;-75
2023/03/07 10:23:31;;;;;;;8.77;7.23;;;5.70;99.90;;;;;;5054147;28;20320;-77
2023/03/07 10:26:34;;;;;;;8.07;6.43;;;5.70;99.90;;;;;;5029196;28;20209;-75
2023/03/07 10:29:09;;;;;;;7.13;5.67;;;5.50;99.90;;;;;;5052771;28;20221;-79
2023/03/07 10:31:40;;;;;;;7.27;4.83;;;5.40;99.90;;;;;;5062454;28;20677;-74
2023/03/07 10:34:26;;;;;;;7.37;5.60;;;5.40;99.90;;;;;;5059333;28;20218;-76
2023/03/07 10:37:11;;;;;;;5.23;4.73;;;5.50;99.90;;;;;;5061359;28;20324;-77
2023/03/07 10:39:51;;;;;;;5.83;4.30;;;5.60;99.90;;;;;;5059519;28;20298;-82
2023/03/07 10:42:18;;;;;;;5.47;3.60;;;5.40;99.90;;;;;;5062080;28;20625;-81
2023/03/07 10:44:47;;;;;;;4.40;4.00;;;5.30;99.90;;;;;;5059627;28;20202;-74
2023/03/07 10:47:21;;;;;;;5.00;3.23;;;5.30;99.90;;;;;;5063069;28;20224;-80
2023/03/07 10:49:48;;;;;;;3.20;2.97;;;5.10;99.90;;;;;;5059904;28;20206;-81
2023/03/07 10:52:38;;;;;;;3.90;2.37;;;5.10;99.90;;;;;;5063431;28;20194;-85
2023/03/07 10:55:30;;;;;;;3.93;2.90;;;4.90;99.90;;;;;;5056172;28;20346;-75
2023/03/07 10:58:12;;;;;;;4.43;3.23;;;5.10;99.90;;;;;;5055782;28;20328;-75
2023/03/07 11:00:38;;;;;;;5.33;3.20;;;5.50;99.90;;;;;;5056840;28;20214;-80
2023/03/07 11:03:03;;;;;;;2.70;2.30;;;5.40;99.90;;;;;;5055923;28;20209;-78
2023/03/07 11:05:32;;;;;;;3.37;2.70;;;5.30;99.90;;;;;;5056171;28;20202;-77
2023/03/07 11:07:59;;;;;;;3.17;2.90;;;5.30;99.90;;;;;;5050478;28;20210;-74
2023/03/07 11:10:30;;;;;;;2.27;2.07;;;5.40;99.90;;;;;;5053114;28;20205;-79
2023/03/07 11:12:56;;;;;;;3.77;2.97;;;5.40;99.90;;;;;;5055251;28;20285;-79
2023/03/07 11:15:23;;;;;;;4.70;3.20;;;5.40;99.90;;;;;;5055107;28;20329;-79
2023/03/07 11:17:50;;;;;;;3.50;3.03;;;5.50;99.90;;;;;;5055163;28;20882;-79
2023/03/07 11:20:28;;;;;;;4.97;2.50;;;5.40;99.90;;;;;;5052883;28;20244;-79
2023/03/07 11:23:15;;;;;;;2.77;2.37;;;5.30;99.90;;;;;;5054019;28;20644;-74
2023/03/07 11:25:41;;;;;;;2.47;2.20;;;5.10;99.90;;;;;;5054017;28;20197;-75
2023/03/07 11:28:32;;;;;;;3.10;2.00;;;5.10;99.90;;;;;;5061804;28;20708;-74
2023/03/07 11:31:17;;;;;;;2.67;2.00;;;5.30;99.90;;;;;;5056530;28;20722;-79
2023/03/07 11:33:57;;;;;;;2.50;2.27;;;5.00;99.90;;;;;;5060725;28;20197;-79
2023/03/07 11:36:37;;;;;;;8.03;2.90;;;5.10;99.90;;;;;;5056192;28;20201;-78
2023/03/07 11:39:26;;;;;;;3.60;2.20;;;5.20;99.90;;;;;;5052905;28;20255;-79
2023/03/07 11:42:02;;;;;;;2.87;2.40;;;5.20;99.90;;;;;;5059637;28;20202;-78
2023/03/07 11:44:41;;;;;;;2.00;1.90;;;5.40;99.90;;;;;;5059511;28;20214;-78
2023/03/07 11:47:43;;;;;;;2.33;2.00;;;5.30;99.90;;;;;;5056139;28;20212;-77
2023/03/07 11:50:23;;;;;;;2.23;2.03;;;5.10;99.90;;;;;;5064457;28;20193;-80
2023/03/07 11:53:22;;;;;;;6.00;2.63;;;4.80;99.90;;;;;;5064228;28;20194;-82
2023/03/07 11:56:10;;;;;;;4.30;1.87;;;4.90;99.90;;;;;;5063377;28;20647;-82
2023/03/07 11:59:11;;;;;;;3.50;1.63;;;5.00;99.90;;;;;;5062581;28;20217;-76
2023/03/07 12:02:10;;;;;;;1.80;1.70;;;4.80;99.90;;;;;;5057186;28;20209;-78
2023/03/07 12:04:55;;;;;;;1.70;1.53;;;4.60;99.90;;;;;;5052693;28;20780;-75
2023/03/07 12:07:33;;;;;;;5.20;1.60;;;4.60;99.90;;;;;;5068465;28;20236;-79
2023/03/07 12:10:14;;;;;;;2.23;1.40;;;4.40;99.90;;;;;;5066340;28;20205;-80
2023/03/07 12:13:02;;;;;;;1.70;1.13;;;4.30;99.90;;;;;;5070069;28;20621;-81
2023/03/07 12:15:35;;;;;;;3.20;1.13;;;4.20;99.90;;;;;;5067547;28;20200;-79
2023/03/07 12:18:28;;;;;;;1.80;1.17;;;4.10;99.90;;;;;;5062726;28;20201;-76
2023/03/07 12:21:24;;;;;;;2.40;1.43;;;4.10;99.90;;;;;;5058473;28;20289;-77
2023/03/07 12:24:01;;;;;;;3.63;1.53;;;3.90;99.90;;;;;;5051718;28;20237;-78
2023/03/07 12:26:49;;;;;;;1.97;1.07;;;3.80;99.90;;;;;;5058753;28;20232;-78
2023/03/07 12:29:39;;;;;;;1.47;1.10;;;3.60;99.90;;;;;;5059085;28;20215;-78
2023/03/07 12:32:23;;;;;;;0.90;0.90;;;3.50;99.90;;;;;;5059179;28;20204;-82
2023/03/07 12:34:58;;;;;;;6.23;1.60;;;3.40;99.90;;;;;;5062155;28;20206;-75
2023/03/07 12:37:31;;;;;;;2.10;1.40;;;3.20;99.90;;;;;;5057892;28;20201;-72
2023/03/07 12:39:59;;;;;;;1.53;1.47;;;3.10;99.90;;;;;;5058264;28;20252;-73
2023/03/07 12:42:48;;;;;;;1.33;1.23;;;3.10;99.90;;;;;;5058182;28;20202;-71
2023/03/07 12:45:27;;;;;;;3.37;1.30;;;3.30;99.90;;;;;;5053963;28;20206;-71
2023/03/07 12:47:53;;;;;;;1.50;1.40;;;3.20;99.90;;;;;;5057524;28;20682;-73
2023/03/07 12:50:38;;;;;;;1.40;1.30;;;3.00;99.90;;;;;;5055290;28;20201;-72
2023/03/07 12:53:34;;;;;;;1.67;1.57;;;3.00;99.90;;;;;;5056982;28;20201;-71
2023/03/07 12:56:14;;;;;;;1.80;1.00;;;2.90;99.90;;;;;;5068821;28;20204;-69